sensor_id;sensor_type;location;lat;lon;timestamp;pressure;altitude;pressure_sealevel;temperature;humidity
70072;BME280;57434;42.794;23.302;2022-09-09T01:34:53;95819.13;;;14.63;69.54
70072;BME280;57434;42.794;23.302;2022-09-09T01:37:19;95872.03;;;14.79;69.73
70072;BME280;57434;42.794;23.302;2022-09-09T01:39:47;95605.78;;;13.03;69.51
70072;BME280;57434;42.794;23.302;2022-09-09T01:42:15;95808.38;;;14.22;70.35
70072;BME280;57434;42.794;23.302;2022-09-09T01:44:41;95928.44;;;14.40;71.54
70072;BME280;57434;42.794;23.302;2022-09-09T01:47:07;95379.13;;;11.05;72.38
70072;BME280;57434;42.794;23.302;2022-09-09T01:49:34;95618.03;;;12.67;72.48
70072;BME280;57434;42.794;23.302;2022-09-09T01:52:04;95496.94;;;11.74;72.27
70072;BME280;57434;42.794;23.302;2022-09-09T01:54:31;95452.91;;;11.54;72.91
70072;BME280;57434;42.794;23.302;2022-09-09T02:03:13;95847.63;;;14.37;73.55
70072;BME280;57434;42.794;23.302;2022-09-09T02:05:43;95813.75;;;14.14;73.57
70072;BME280;57434;42.794;23.302;2022-09-09T02:08:43;95716.69;;;13.22;74.31
70072;BME280;57434;42.794;23.302;2022-09-09T02:11:14;95754.47;;;13.47;73.97
70072;BME280;57434;42.794;23.302;2022-09-09T02:13:40;95844.53;;;14.23;73.68
70072;BME280;57434;42.794;23.302;2022-09-09T02:16:15;95728.56;;;13.43;73.60
70072;BME280;57434;42.794;23.302;2022-09-09T02:19:09;95832.78;;;14.59;73.13
70072;BME280;57434;42.794;23.302;2022-09-09T02:21:39;95815.28;;;13.99;73.73
70072;BME280;57434;42.794;23.302;2022-09-09T02:24:08;95715.72;;;13.37;73.66
70072;BME280;57434;42.794;23.302;2022-09-09T02:26:40;95725.44;;;13.30;74.14
70072;BME280;57434;42.794;23.302;2022-09-09T02:29:28;95599.09;;;12.67;74.34
70072;BME280;57434;42.794;23.302;2022-09-09T02:31:58;95764.50;;;13.71;73.89
70072;BME280;57434;42.794;23.302;2022-09-09T02:34:28;95777.84;;;13.87;74.14
70072;BME280;57434;42.794;23.302;2022-09-09T02:36:57;95708.78;;;13.32;74.04
70072;BME280;57434;42.794;23.302;2022-09-09T02:39:25;95599.56;;;12.60;74.14
70072;BME280;57434;42.794;23.302;2022-09-09T02:41:51;95719.53;;;13.28;74.06
70072;BME280;57434;42.794;23.302;2022-09-09T02:44:18;95447.94;;;11.32;73.90
70072;BME280;57434;42.794;23.302;2022-09-09T02:50:12;95774.38;;;13.33;74.57
70072;BME280;57434;42.794;23.302;2022-09-09T02:58:05;95587.19;;;11.81;75.75
70072;BME280;57434;42.794;23.302;2022-09-09T03:00:45;95877.59;;;13.30;77.37
70072;BME280;57434;42.794;23.302;2022-09-09T03:07:16;95439.59;;;10.38;78.64
70072;BME280;57434;42.794;23.302;2022-09-09T03:09:49;95494.22;;;10.74;78.70
70072;BME280;57434;42.794;23.302;2022-09-09T03:12:15;95620.41;;;11.46;78.45
70072;BME280;57434;42.794;23.302;2022-09-09T03:14:41;95432.69;;;10.65;78.26
70072;BME280;57434;42.794;23.302;2022-09-09T03:17:11;95625.88;;;11.61;78.16
70072;BME280;57434;42.794;23.302;2022-09-09T03:19:39;95609.81;;;11.67;78.23
70072;BME280;57434;42.794;23.302;2022-09-09T03:22:10;95687.00;;;12.03;78.36
70072;BME280;57434;42.794;23.302;2022-09-09T03:24:36;95638.41;;;12.02;77.46
70072;BME280;57434;42.794;23.302;2022-09-09T03:27:05;95653.19;;;12.34;76.32
70072;BME280;57434;42.794;23.302;2022-09-09T03:29:32;95884.22;;;13.86;76.01
70072;BME280;57434;42.794;23.302;2022-09-09T03:31:58;95557.22;;;11.73;75.66
70072;BME280;57434;42.794;23.302;2022-09-09T03:34:24;95618.88;;;12.25;75.20
70072;BME280;57434;42.794;23.302;2022-09-09T03:36:50;95621.41;;;12.23;75.18
70072;BME280;57434;42.794;23.302;2022-09-09T03:39:16;95637.19;;;12.14;74.98
70072;BME280;57434;42.794;23.302;2022-09-09T03:41:42;95470.13;;;11.25;75.12
70072;BME280;57434;42.794;23.302;2022-09-09T03:44:10;95891.16;;;13.91;75.64
70072;BME280;57434;42.794;23.302;2022-09-09T03:46:36;95778.72;;;13.28;75.20
70072;BME280;57434;42.794;23.302;2022-09-09T03:49:03;95712.41;;;12.19;77.63
70072;BME280;57434;42.794;23.302;2022-09-09T03:51:29;95754.41;;;12.71;77.30
70072;BME280;57434;42.794;23.302;2022-09-09T03:53:55;95743.34;;;12.57;77.12
70072;BME280;57434;42.794;23.302;2022-09-09T03:56:24;95463.34;;;11.00;76.42
70072;BME280;57434;42.794;23.302;2022-09-09T03:58:50;95606.81;;;11.76;76.95
70072;BME280;57434;42.794;23.302;2022-09-09T04:01:15;95849.69;;;13.32;77.54
70072;BME280;57434;42.794;23.302;2022-09-09T04:03:43;95718.50;;;12.55;76.78
70072;BME280;57434;42.794;23.302;2022-09-09T04:06:11;95503.97;;;11.47;75.98
70072;BME280;57434;42.794;23.302;2022-09-09T04:08:39;95785.97;;;12.44;78.00
70072;BME280;57434;42.794;23.302;2022-09-09T04:11:05;95480.44;;;11.02;77.05
70072;BME280;57434;42.794;23.302;2022-09-09T04:13:38;95663.84;;;12.19;77.17
70072;BME280;57434;42.794;23.302;2022-09-09T04:16:09;95499.63;;;11.09;77.04
70072;BME280;57434;42.794;23.302;2022-09-09T04:18:35;95473.03;;;10.99;76.95
70072;BME280;57434;42.794;23.302;2022-09-09T04:21:02;95482.66;;;11.29;76.91
70072;BME280;57434;42.794;23.302;2022-09-09T04:23:31;95899.91;;;13.99;76.32
70072;BME280;57434;42.794;23.302;2022-09-09T04:26:01;95857.09;;;14.00;75.69
70072;BME280;57434;42.794;23.302;2022-09-09T04:28:30;95472.78;;;11.45;75.40
70072;BME280;57434;42.794;23.302;2022-09-09T04:31:03;95513.47;;;11.61;75.89
70072;BME280;57434;42.794;23.302;2022-09-09T04:33:29;95737.09;;;12.89;75.02
70072;BME280;57434;42.794;23.302;2022-09-09T04:35:58;95916.78;;;13.76;73.54
70072;BME280;57434;42.794;23.302;2022-09-09T04:38:25;95794.19;;;12.90;75.06
70072;BME280;57434;42.794;23.302;2022-09-09T04:40:52;95740.91;;;12.33;76.43
70072;BME280;57434;42.794;23.302;2022-09-09T04:43:20;95899.28;;;13.61;76.34
70072;BME280;57434;42.794;23.302;2022-09-09T04:45:50;95869.41;;;13.97;75.92
70072;BME280;57434;42.794;23.302;2022-09-09T04:48:22;95486.75;;;10.91;76.36
70072;BME280;57434;42.794;23.302;2022-09-09T04:50:58;95583.00;;;11.66;75.44
70072;BME280;57434;42.794;23.302;2022-09-09T04:53:27;95867.50;;;13.61;77.22
70072;BME280;57434;42.794;23.302;2022-09-09T04:58:30;95832.19;;;13.76;76.95
70072;BME280;57434;42.794;23.302;2022-09-09T05:01:08;95679.03;;;13.09;75.84
70072;BME280;57434;42.794;23.302;2022-09-09T05:03:35;95560.69;;;12.75;74.22
70072;BME280;57434;42.794;23.302;2022-09-09T05:06:05;95872.25;;;14.98;74.19
70072;BME280;57434;42.794;23.302;2022-09-09T05:08:31;95764.47;;;14.54;73.05
70072;BME280;57434;42.794;23.302;2022-09-09T05:11:00;95748.34;;;13.82;74.27
70072;BME280;57434;42.794;23.302;2022-09-09T05:13:28;95870.44;;;14.89;74.52
70072;BME280;57434;42.794;23.302;2022-09-09T05:15:54;95627.38;;;13.56;72.95
70072;BME280;57434;42.794;23.302;2022-09-09T05:18:21;95872.56;;;15.57;72.01
70072;BME280;57434;42.794;23.302;2022-09-09T05:20:48;95668.81;;;14.29;71.55
70072;BME280;57434;42.794;23.302;2022-09-09T05:23:15;95650.63;;;14.07;72.11
70072;BME280;57434;42.794;23.302;2022-09-09T05:25:41;95728.78;;;14.68;71.76
70072;BME280;57434;42.794;23.302;2022-09-09T05:28:10;95857.16;;;15.64;71.71
70072;BME280;57434;42.794;23.302;2022-09-09T05:30:38;95552.03;;;13.12;73.38
70072;BME280;57434;42.794;23.302;2022-09-09T05:33:04;95699.38;;;13.91;75.37
70072;BME280;57434;42.794;23.302;2022-09-09T05:35:32;95623.22;;;14.02;73.89
70072;BME280;57434;42.794;23.302;2022-09-09T05:38:01;95734.66;;;14.70;73.95
70072;BME280;57434;42.794;23.302;2022-09-09T05:40:27;95581.72;;;14.55;71.79
70072;BME280;57434;42.794;23.302;2022-09-09T05:42:53;95686.53;;;15.45;70.39
70072;BME280;57434;42.794;23.302;2022-09-09T05:45:19;95774.91;;;16.57;69.26
70072;BME280;57434;42.794;23.302;2022-09-09T05:47:51;95800.31;;;16.69;67.62
70072;BME280;57434;42.794;23.302;2022-09-09T05:50:18;95805.94;;;17.23;65.94
70072;BME280;57434;42.794;23.302;2022-09-09T05:52:47;95606.31;;;15.48;67.49
70072;BME280;57434;42.794;23.302;2022-09-09T05:55:17;95510.56;;;14.68;67.26
70072;BME280;57434;42.794;23.302;2022-09-09T05:57:48;95797.31;;;16.85;68.44
70072;BME280;57434;42.794;23.302;2022-09-09T06:00:17;95911.25;;;17.81;66.25
70072;BME280;57434;42.794;23.302;2022-09-09T06:02:51;95616.13;;;16.25;66.52
70072;BME280;57434;42.794;23.302;2022-09-09T06:05:18;95752.56;;;17.03;66.75
70072;BME280;57434;42.794;23.302;2022-09-09T06:07:44;95687.28;;;15.86;68.21
70072;BME280;57434;42.794;23.302;2022-09-09T06:10:12;95650.56;;;16.05;68.53
70072;BME280;57434;42.794;23.302;2022-09-09T06:12:40;95784.38;;;17.33;66.54
70072;BME280;57434;42.794;23.302;2022-09-09T06:15:07;95748.25;;;17.58;64.44
70072;BME280;57434;42.794;23.302;2022-09-09T06:17:34;95797.03;;;17.75;64.47
70072;BME280;57434;42.794;23.302;2022-09-09T06:20:00;95777.00;;;18.18;64.55
70072;BME280;57434;42.794;23.302;2022-09-09T06:22:26;95771.47;;;18.58;61.56
70072;BME280;57434;42.794;23.302;2022-09-09T06:24:52;95690.34;;;18.31;59.37
70072;BME280;57434;42.794;23.302;2022-09-09T06:27:18;95829.97;;;19.38;58.02
70072;BME280;57434;42.794;23.302;2022-09-09T06:29:44;95887.09;;;19.80;56.52
70072;BME280;57434;42.794;23.302;2022-09-09T06:32:10;95566.22;;;17.99;56.17
70072;BME280;57434;42.794;23.302;2022-09-09T06:34:38;95822.75;;;19.50;54.67
70072;BME280;57434;42.794;23.302;2022-09-09T06:37:04;95559.78;;;17.99;54.23
70072;BME280;57434;42.794;23.302;2022-09-09T06:39:32;95868.09;;;20.22;53.57
70072;BME280;57434;42.794;23.302;2022-09-09T06:41:58;95789.09;;;20.22;52.84
70072;BME280;57434;42.794;23.302;2022-09-09T06:44:25;95637.28;;;19.25;51.75
70072;BME280;57434;42.794;23.302;2022-09-09T06:46:52;95661.91;;;19.91;52.37
70072;BME280;57434;42.794;23.302;2022-09-09T06:49:18;95903.63;;;20.96;51.11
70072;BME280;57434;42.794;23.302;2022-09-09T06:51:44;95729.72;;;20.34;51.49
70072;BME280;57434;42.794;23.302;2022-09-09T06:54:11;95883.41;;;21.57;51.13
70072;BME280;57434;42.794;23.302;2022-09-09T06:56:39;95793.81;;;20.41;51.75
70072;BME280;57434;42.794;23.302;2022-09-09T06:59:10;95711.06;;;19.71;52.47
70072;BME280;57434;42.794;23.302;2022-09-09T07:01:53;95413.31;;;17.82;51.80
70072;BME280;57434;42.794;23.302;2022-09-09T07:04:26;95630.22;;;19.19;51.02
70072;BME280;57434;42.794;23.302;2022-09-09T07:07:10;95886.59;;;20.83;51.51
70072;BME280;57434;42.794;23.302;2022-09-09T07:09:47;95586.03;;;19.05;50.74
70072;BME280;57434;42.794;23.302;2022-09-09T07:12:14;95656.78;;;20.31;49.65
70072;BME280;57434;42.794;23.302;2022-09-09T07:14:43;95881.41;;;21.73;49.32
70072;BME280;57434;42.794;23.302;2022-09-09T07:17:08;95826.56;;;21.74;47.80
70072;BME280;57434;42.794;23.302;2022-09-09T07:19:34;95748.66;;;21.22;48.70
70072;BME280;57434;42.794;23.302;2022-09-09T07:22:00;95759.31;;;21.58;49.13
70072;BME280;57434;42.794;23.302;2022-09-09T07:24:27;95740.50;;;21.62;47.73
70072;BME280;57434;42.794;23.302;2022-09-09T07:26:55;95840.06;;;22.02;49.21
70072;BME280;57434;42.794;23.302;2022-09-09T07:29:21;95780.81;;;22.03;48.03
70072;BME280;57434;42.794;23.302;2022-09-09T07:31:47;95812.53;;;22.20;47.59
70072;BME280;57434;42.794;23.302;2022-09-09T07:34:13;95817.75;;;22.52;47.11
70072;BME280;57434;42.794;23.302;2022-09-09T07:36:40;95754.25;;;22.38;46.90
70072;BME280;57434;42.794;23.302;2022-09-09T07:39:12;95864.69;;;22.87;47.12
70072;BME280;57434;42.794;23.302;2022-09-09T07:41:43;95777.09;;;22.30;47.37
70072;BME280;57434;42.794;23.302;2022-09-09T07:44:12;95847.94;;;22.99;46.73
70072;BME280;57434;42.794;23.302;2022-09-09T07:46:39;95847.16;;;23.21;47.16
70072;BME280;57434;42.794;23.302;2022-09-09T07:49:05;95734.34;;;22.02;47.91
70072;BME280;57434;42.794;23.302;2022-09-09T07:51:33;95837.25;;;23.07;47.34
70072;BME280;57434;42.794;23.302;2022-09-09T07:54:02;95864.69;;;23.78;45.40
70072;BME280;57434;42.794;23.302;2022-09-09T07:56:29;95857.75;;;24.84;44.59
70072;BME280;57434;42.794;23.302;2022-09-09T07:58:56;95765.28;;;24.36;43.10
70072;BME280;57434;42.794;23.302;2022-09-09T08:01:31;95691.34;;;24.27;42.16
70072;BME280;57434;42.794;23.302;2022-09-09T08:04:03;95492.19;;;22.56;41.76
70072;BME280;57434;42.794;23.302;2022-09-09T08:06:32;95619.22;;;23.01;43.40
70072;BME280;57434;42.794;23.302;2022-09-09T08:09:01;95669.59;;;23.59;41.85
70072;BME280;57434;42.794;23.302;2022-09-09T08:11:29;95855.47;;;25.33;41.95
70072;BME280;57434;42.794;23.302;2022-09-09T08:13:57;95705.59;;;23.77;42.61
70072;BME280;57434;42.794;23.302;2022-09-09T08:16:29;95837.94;;;25.21;41.26
70072;BME280;57434;42.794;23.302;2022-09-09T08:18:56;95554.81;;;23.32;40.28
70072;BME280;57434;42.794;23.302;2022-09-09T08:21:28;95628.91;;;24.68;39.55
70072;BME280;57434;42.794;23.302;2022-09-09T08:23:59;95658.91;;;25.09;40.60
70072;BME280;57434;42.794;23.302;2022-09-09T08:26:31;95844.31;;;26.13;39.92
70072;BME280;57434;42.794;23.302;2022-09-09T08:28:58;95728.34;;;25.32;40.78
70072;BME280;57434;42.794;23.302;2022-09-09T08:31:33;95683.38;;;24.18;40.43
70072;BME280;57434;42.794;23.302;2022-09-09T08:34:00;95633.56;;;23.81;41.32
70072;BME280;57434;42.794;23.302;2022-09-09T08:36:30;95826.28;;;25.19;43.71
70072;BME280;57434;42.794;23.302;2022-09-09T08:38:59;95746.78;;;24.54;42.30
70072;BME280;57434;42.794;23.302;2022-09-09T08:41:46;95830.34;;;24.91;42.91
70072;BME280;57434;42.794;23.302;2022-09-09T08:47:16;95754.97;;;24.66;42.64
70072;BME280;57434;42.794;23.302;2022-09-09T08:52:46;95820.94;;;25.57;41.85
70072;BME280;57434;42.794;23.302;2022-09-09T08:58:13;95824.84;;;25.87;42.21
70072;BME280;57434;42.794;23.302;2022-09-09T09:00:52;95811.75;;;25.93;41.89
70072;BME280;57434;42.794;23.302;2022-09-09T09:09:21;95818.22;;;26.73;39.55
70072;BME280;57434;42.794;23.302;2022-09-09T09:11:52;95711.03;;;25.40;40.25
70072;BME280;57434;42.794;23.302;2022-09-09T09:14:24;95821.47;;;26.15;40.09
70072;BME280;57434;42.794;23.302;2022-09-09T09:16:59;95708.22;;;25.15;40.85
70072;BME280;57434;42.794;23.302;2022-09-09T09:19:27;95661.94;;;25.11;39.74
70072;BME280;57434;42.794;23.302;2022-09-09T09:27:52;95807.16;;;26.69;41.13
70072;BME280;57434;42.794;23.302;2022-09-09T09:30:22;95724.53;;;25.64;40.30
70072;BME280;57434;42.794;23.302;2022-09-09T09:32:56;95809.25;;;25.80;41.64
70072;BME280;57434;42.794;23.302;2022-09-09T09:35:23;95583.13;;;24.10;42.46
70072;BME280;57434;42.794;23.302;2022-09-09T09:37:49;95697.59;;;25.25;41.61
70072;BME280;57434;42.794;23.302;2022-09-09T09:40:20;95730.31;;;26.08;40.34
70072;BME280;57434;42.794;23.302;2022-09-09T09:43:17;95731.69;;;25.90;41.70
70072;BME280;57434;42.794;23.302;2022-09-09T09:45:44;95713.44;;;25.26;41.52
70072;BME280;57434;42.794;23.302;2022-09-09T09:48:14;95812.84;;;25.46;42.58
70072;BME280;57434;42.794;23.302;2022-09-09T09:50:55;95725.63;;;24.75;42.69
70072;BME280;57434;42.794;23.302;2022-09-09T09:53:30;95795.91;;;24.91;43.29
70072;BME280;57434;42.794;23.302;2022-09-09T09:56:05;95724.41;;;24.28;43.30
70072;BME280;57434;42.794;23.302;2022-09-09T10:01:31;95788.28;;;25.28;44.61
70072;BME280;57434;42.794;23.302;2022-09-09T10:04:21;95797.56;;;25.44;43.02
70072;BME280;57434;42.794;23.302;2022-09-09T10:06:49;95699.06;;;24.91;43.75
70072;BME280;57434;42.794;23.302;2022-09-09T10:09:23;95803.50;;;25.21;43.48
70072;BME280;57434;42.794;23.302;2022-09-09T10:14:52;95798.84;;;25.25;44.92
70072;BME280;57434;42.794;23.302;2022-09-09T10:17:27;95799.44;;;24.74;46.68
70072;BME280;57434;42.794;23.302;2022-09-09T10:22:37;95815.97;;;24.66;46.03
70072;BME280;57434;42.794;23.302;2022-09-09T10:25:22;95825.94;;;24.65;46.86
70072;BME280;57434;42.794;23.302;2022-09-09T10:28:24;95806.22;;;24.69;44.87
70072;BME280;57434;42.794;23.302;2022-09-09T10:31:14;95811.81;;;24.84;46.06
70072;BME280;57434;42.794;23.302;2022-09-09T10:36:34;95735.09;;;24.35;45.29
70072;BME280;57434;42.794;23.302;2022-09-09T10:39:08;95789.75;;;24.70;45.83
70072;BME280;57434;42.794;23.302;2022-09-09T10:55:27;95766.44;;;24.66;46.03
70072;BME280;57434;42.794;23.302;2022-09-09T10:57:58;95811.16;;;25.18;45.18
70072;BME280;57434;42.794;23.302;2022-09-09T11:00:43;95806.88;;;25.02;45.49
70072;BME280;57434;42.794;23.302;2022-09-09T11:03:19;95821.06;;;25.00;46.41
70072;BME280;57434;42.794;23.302;2022-09-09T11:05:49;95779.97;;;24.98;47.17
70072;BME280;57434;42.794;23.302;2022-09-09T11:08:20;95673.72;;;24.63;45.51
70072;BME280;57434;42.794;23.302;2022-09-09T11:11:02;95795.19;;;25.50;46.13
70072;BME280;57434;42.794;23.302;2022-09-09T11:21:42;95734.84;;;24.41;46.88
70072;BME280;57434;42.794;23.302;2022-09-09T11:24:21;95768.00;;;25.26;46.30
70072;BME280;57434;42.794;23.302;2022-09-09T11:27:16;95726.56;;;24.77;46.36
70072;BME280;57434;42.794;23.302;2022-09-09T11:30:05;95774.88;;;25.30;47.19
70072;BME280;57434;42.794;23.302;2022-09-09T11:33:01;95761.34;;;25.23;46.05
70072;BME280;57434;42.794;23.302;2022-09-09T11:40:28;95572.56;;;24.38;46.09
70072;BME280;57434;42.794;23.302;2022-09-09T11:43:13;95753.69;;;25.60;46.30
70072;BME280;57434;42.794;23.302;2022-09-09T11:45:43;95771.09;;;25.62;46.20
70072;BME280;57434;42.794;23.302;2022-09-09T11:59:17;95599.09;;;25.49;45.85
70072;BME280;57434;42.794;23.302;2022-09-09T12:05:09;95674.66;;;26.96;43.51
70072;BME280;57434;42.794;23.302;2022-09-09T12:07:56;95727.81;;;27.51;42.63
70072;BME280;57434;42.794;23.302;2022-09-09T12:10:32;95724.06;;;27.87;43.65
70072;BME280;57434;42.794;23.302;2022-09-09T12:13:21;95705.97;;;28.06;42.98
70072;BME280;57434;42.794;23.302;2022-09-09T12:15:56;95613.88;;;27.79;40.55
70072;BME280;57434;42.794;23.302;2022-09-09T12:18:38;95642.75;;;27.59;41.36
70072;BME280;57434;42.794;23.302;2022-09-09T12:23:52;95630.78;;;27.34;43.03
70072;BME280;57434;42.794;23.302;2022-09-09T12:26:32;95703.09;;;27.77;42.77
70072;BME280;57434;42.794;23.302;2022-09-09T12:29:11;95641.81;;;27.09;44.16
70072;BME280;57434;42.794;23.302;2022-09-09T12:32:04;95692.88;;;27.18;44.25
70072;BME280;57434;42.794;23.302;2022-09-09T12:34:55;95703.13;;;26.82;45.27
70072;BME280;57434;42.794;23.302;2022-09-09T12:37:41;95547.81;;;26.00;44.81
70072;BME280;57434;42.794;23.302;2022-09-09T12:40:22;95303.09;;;24.74;44.74
70072;BME280;57434;42.794;23.302;2022-09-09T12:42:48;95559.78;;;26.71;44.40
70072;BME280;57434;42.794;23.302;2022-09-09T12:45:18;95668.34;;;27.07;45.12
70072;BME280;57434;42.794;23.302;2022-09-09T12:47:56;95517.09;;;26.02;44.31
70072;BME280;57434;42.794;23.302;2022-09-09T12:50:48;95687.63;;;27.82;44.22
70072;BME280;57434;42.794;23.302;2022-09-09T12:53:23;95594.50;;;27.70;42.45
70072;BME280;57434;42.794;23.302;2022-09-09T12:55:57;95563.84;;;27.64;42.96
70072;BME280;57434;42.794;23.302;2022-09-09T12:58:23;95536.78;;;27.10;43.89
70072;BME280;57434;42.794;23.302;2022-09-09T13:00:52;95557.81;;;27.51;43.48
70072;BME280;57434;42.794;23.302;2022-09-09T13:03:22;95551.47;;;27.43;43.59
70072;BME280;57434;42.794;23.302;2022-09-09T13:05:49;95641.53;;;28.63;43.01
70072;BME280;57434;42.794;23.302;2022-09-09T13:08:16;95558.44;;;28.30;41.70
70072;BME280;57434;42.794;23.302;2022-09-09T13:10:57;95666.94;;;29.17;41.32
70072;BME280;57434;42.794;23.302;2022-09-09T13:13:38;95658.38;;;29.40;40.59
70072;BME280;57434;42.794;23.302;2022-09-09T13:16:06;95630.59;;;29.35;41.16
70072;BME280;57434;42.794;23.302;2022-09-09T13:18:42;95516.66;;;28.10;41.27
70072;BME280;57434;42.794;23.302;2022-09-09T13:21:09;95541.03;;;27.28;42.83
70072;BME280;57434;42.794;23.302;2022-09-09T13:23:36;95627.13;;;27.62;44.09
70072;BME280;57434;42.794;23.302;2022-09-09T13:26:20;95565.41;;;26.69;44.96
70072;BME280;57434;42.794;23.302;2022-09-09T13:28:47;95507.88;;;26.13;45.51
70072;BME280;57434;42.794;23.302;2022-09-09T13:31:35;95621.00;;;26.91;44.67
70072;BME280;57434;42.794;23.302;2022-09-09T13:34:11;95453.75;;;25.37;45.26
70072;BME280;57434;42.794;23.302;2022-09-09T13:36:40;95370.56;;;24.48;45.45
70072;BME280;57434;42.794;23.302;2022-09-09T13:39:15;95511.72;;;25.25;46.13
70072;BME280;57434;42.794;23.302;2022-09-09T13:41:44;95535.78;;;25.30;47.46
70072;BME280;57434;42.794;23.302;2022-09-09T13:44:26;95488.31;;;24.85;47.54
70072;BME280;57434;42.794;23.302;2022-09-09T13:47:15;95560.84;;;25.47;47.42
70072;BME280;57434;42.794;23.302;2022-09-09T13:49:43;95548.28;;;25.25;47.52
70072;BME280;57434;42.794;23.302;2022-09-09T13:52:12;95634.63;;;25.71;47.63
70072;BME280;57434;42.794;23.302;2022-09-09T13:54:40;95397.34;;;24.16;47.39
70072;BME280;57434;42.794;23.302;2022-09-09T13:57:21;95535.84;;;25.40;47.52
70072;BME280;57434;42.794;23.302;2022-09-09T13:59:53;95596.56;;;26.07;47.56
70072;BME280;57434;42.794;23.302;2022-09-09T14:02:22;95614.09;;;26.02;45.96
70072;BME280;57434;42.794;23.302;2022-09-09T14:04:50;95417.59;;;24.80;46.97
70072;BME280;57434;42.794;23.302;2022-09-09T14:07:22;95381.72;;;24.88;46.71
70072;BME280;57434;42.794;23.302;2022-09-09T14:09:48;95584.75;;;26.13;46.73
70072;BME280;57434;42.794;23.302;2022-09-09T14:12:21;95456.06;;;25.21;45.80
70072;BME280;57434;42.794;23.302;2022-09-09T14:14:47;95388.66;;;24.85;46.52
70072;BME280;57434;42.794;23.302;2022-09-09T14:17:16;95520.75;;;25.76;46.47
70072;BME280;57434;42.794;23.302;2022-09-09T14:19:42;95559.81;;;25.88;46.76
70072;BME280;57434;42.794;23.302;2022-09-09T14:22:10;95493.72;;;25.25;47.37
70072;BME280;57434;42.794;23.302;2022-09-09T14:24:36;95458.34;;;24.95;47.19
70072;BME280;57434;42.794;23.302;2022-09-09T14:27:02;95595.16;;;25.99;47.63
70072;BME280;57434;42.794;23.302;2022-09-09T14:29:28;95411.19;;;24.72;46.33
70072;BME280;57434;42.794;23.302;2022-09-09T14:31:53;95320.38;;;23.95;46.91
70072;BME280;57434;42.794;23.302;2022-09-09T14:34:20;95323.13;;;24.38;46.70
70072;BME280;57434;42.794;23.302;2022-09-09T14:36:48;95436.94;;;25.70;45.71
70072;BME280;57434;42.794;23.302;2022-09-09T14:39:16;95389.75;;;25.63;44.63
70072;BME280;57434;42.794;23.302;2022-09-09T14:41:42;95588.47;;;27.08;43.46
70072;BME280;57434;42.794;23.302;2022-09-09T14:44:08;95278.16;;;25.04;43.95
70072;BME280;57434;42.794;23.302;2022-09-09T14:46:34;95503.00;;;26.62;43.96
70072;BME280;57434;42.794;23.302;2022-09-09T14:49:00;95589.22;;;27.08;43.87
70072;BME280;57434;42.794;23.302;2022-09-09T14:51:28;95401.69;;;25.59;44.42
70072;BME280;57434;42.794;23.302;2022-09-09T14:53:55;95579.22;;;27.09;44.98
70072;BME280;57434;42.794;23.302;2022-09-09T14:56:27;95561.94;;;26.90;44.59
70072;BME280;57434;42.794;23.302;2022-09-09T14:58:54;95487.66;;;26.40;44.68
70072;BME280;57434;42.794;23.302;2022-09-09T15:01:20;95473.88;;;26.39;45.09
70072;BME280;57434;42.794;23.302;2022-09-09T15:06:21;95545.69;;;26.56;45.24
70072;BME280;57434;42.794;23.302;2022-09-09T15:08:50;95505.88;;;25.96;46.04
70072;BME280;57434;42.794;23.302;2022-09-09T15:11:16;95594.06;;;26.30;47.06
70072;BME280;57434;42.794;23.302;2022-09-09T15:13:43;95602.34;;;25.90;47.88
70072;BME280;57434;42.794;23.302;2022-09-09T15:16:14;95601.81;;;25.47;49.60
70072;BME280;57434;42.794;23.302;2022-09-09T15:18:41;95591.13;;;25.57;49.51
70072;BME280;57434;42.794;23.302;2022-09-09T15:21:20;95594.56;;;25.73;48.87
70072;BME280;57434;42.794;23.302;2022-09-09T15:23:47;95479.47;;;24.73;49.27
70072;BME280;57434;42.794;23.302;2022-09-09T15:26:13;95502.91;;;24.79;49.60
70072;BME280;57434;42.794;23.302;2022-09-09T15:28:41;95590.09;;;25.62;49.17
70072;BME280;57434;42.794;23.302;2022-09-09T15:31:11;95592.09;;;25.70;49.20
70072;BME280;57434;42.794;23.302;2022-09-09T15:33:40;95589.56;;;25.74;49.10
70072;BME280;57434;42.794;23.302;2022-09-09T15:38:40;95383.28;;;24.11;49.12
70072;BME280;57434;42.794;23.302;2022-09-09T15:41:06;95512.13;;;24.95;49.68
70072;BME280;57434;42.794;23.302;2022-09-09T15:43:31;95497.44;;;24.74;50.11
70072;BME280;57434;42.794;23.302;2022-09-09T15:46:02;95590.16;;;25.45;50.21
70072;BME280;57434;42.794;23.302;2022-09-09T15:48:33;95593.78;;;25.28;50.60
70072;BME280;57434;42.794;23.302;2022-09-09T15:51:03;95586.88;;;25.32;51.21
70072;BME280;57434;42.794;23.302;2022-09-09T15:53:31;95397.00;;;23.95;51.10
70072;BME280;57434;42.794;23.302;2022-09-09T15:55:59;95602.00;;;25.15;51.84
70072;BME280;57434;42.794;23.302;2022-09-09T15:58:30;95586.47;;;25.01;52.54
70072;BME280;57434;42.794;23.302;2022-09-09T16:01:03;95594.25;;;24.90;52.60
70072;BME280;57434;42.794;23.302;2022-09-09T16:03:33;95531.31;;;24.33;52.88
70072;BME280;57434;42.794;23.302;2022-09-09T16:05:59;95509.03;;;24.07;53.47
70072;BME280;57434;42.794;23.302;2022-09-09T16:08:31;95554.25;;;24.16;54.13
70072;BME280;57434;42.794;23.302;2022-09-09T16:11:10;95469.44;;;23.63;54.49
70072;BME280;57434;42.794;23.302;2022-09-09T16:13:38;95455.84;;;23.46;54.80
70072;BME280;57434;42.794;23.302;2022-09-09T16:16:08;95578.84;;;24.19;55.02
70072;BME280;57434;42.794;23.302;2022-09-09T16:18:40;95457.91;;;23.21;55.33
70072;BME280;57434;42.794;23.302;2022-09-09T16:21:07;95573.47;;;23.98;56.04
70072;BME280;57434;42.794;23.302;2022-09-09T16:23:34;95524.59;;;23.39;56.37
70072;BME280;57434;42.794;23.302;2022-09-09T16:26:00;95449.06;;;23.02;56.27